createdAt,value
2019-01-12T00:01:41.118Z,96911.58
2019-01-12T00:04:31.240Z,96916.63
2019-01-12T00:07:13.664Z,96913.69
2019-01-12T00:13:06.510Z,96920.21
2019-01-12T00:15:56.412Z,96920.75
2019-01-12T00:18:43.423Z,96919.20
2019-01-12T00:21:26.010Z,96917.38
2019-01-12T00:24:15.798Z,96927.94
2019-01-12T00:26:58.836Z,96929.42
2019-01-12T00:29:48.644Z,96924.50
2019-01-12T00:32:30.950Z,96927.13
2019-01-12T00:35:20.730Z,96927.18
2019-01-12T00:38:03.624Z,96925.30
2019-01-12T00:40:46.122Z,96910.58
2019-01-12T00:43:35.936Z,96924.02
2019-01-12T00:46:25.777Z,96923.16
2019-01-12T00:49:15.724Z,96928.83
2019-01-12T00:52:05.630Z,96923.16
2019-01-12T00:54:38.674Z,96920.33
2019-01-12T00:57:27.891Z,96921.18
2019-01-12T01:00:12.032Z,96913.84
2019-01-12T01:02:58.438Z,96927.08
2019-01-12T01:08:44.706Z,96925.51
2019-01-12T01:11:15.431Z,96901.64
2019-01-12T01:17:11.212Z,96926.95
2019-01-12T01:22:57.732Z,96924.17
2019-01-12T01:31:25.793Z,96928.47
2019-01-12T01:34:15.721Z,96928.34
2019-01-12T01:37:05.631Z,96929.12
2019-01-12T01:42:37.438Z,96929.69
2019-01-12T01:45:27.246Z,96924.61
2019-01-12T01:48:09.777Z,96932.37
2019-01-12T01:50:59.653Z,96910.09
2019-01-12T01:56:53.535Z,96926.95
2019-01-12T01:59:39.871Z,96922.88
2019-01-12T02:02:23.141Z,96924.33
2019-01-12T02:05:07.633Z,96901.25
2019-01-12T02:07:57.461Z,96925.84
2019-01-12T02:10:41.341Z,96911.02
2019-01-12T02:13:31.150Z,96930.87
2019-01-12T02:16:13.731Z,96932.64
2019-01-12T02:19:03.785Z,96933.98
2019-01-12T02:21:46.252Z,96925.09
2019-01-12T02:27:40.529Z,96920.54
2019-01-12T02:30:30.713Z,96933.55
2019-01-12T02:33:13.363Z,96938.59
2019-01-12T02:36:03.169Z,96937.51
2019-01-12T02:38:45.405Z,96929.65
2019-01-12T02:41:35.201Z,96933.77
2019-01-12T02:44:19.046Z,96936.66
2019-01-12T02:47:09.185Z,96941.76
2019-01-12T02:49:51.827Z,96934.57
2019-01-12T02:52:41.952Z,96919.24
2019-01-12T02:55:24.060Z,96932.05
2019-01-12T02:58:13.857Z,96925.03
2019-01-12T03:00:56.245Z,96922.81
2019-01-12T03:03:48.299Z,96913.44
2019-01-12T03:06:38.165Z,96921.76
2019-01-12T03:09:28.252Z,96923.16
2019-01-12T03:12:10.866Z,96913.03
2019-01-12T03:15:00.958Z,96916.45
2019-01-12T03:23:37.122Z,96898.07
2019-01-12T03:26:26.940Z,96905.53
2019-01-12T03:29:17.122Z,96899.58
2019-01-12T03:32:01.399Z,96887.27
2019-01-12T03:34:43.618Z,96905.00
2019-01-12T03:44:06.433Z,96895.88
2019-01-12T03:49:47.915Z,96904.69
2019-01-12T03:52:31.771Z,96906.09
2019-01-12T03:55:25.791Z,96898.22
2019-01-12T03:58:06.543Z,96905.77
2019-01-12T04:00:56.406Z,96893.11
2019-01-12T04:04:05.587Z,96891.03
2019-01-12T04:06:55.729Z,96881.66
2019-01-12T04:09:45.860Z,96851.41
2019-01-12T04:12:36.583Z,96873.50
2019-01-12T04:15:26.427Z,96874.98
2019-01-12T04:18:16.275Z,96847.48
2019-01-12T04:21:06.660Z,96877.66
2019-01-12T04:27:00.691Z,96879.74
2019-01-12T04:29:44.615Z,96867.28
2019-01-12T04:32:31.019Z,96878.34
2019-01-12T04:35:15.333Z,96880.59
2019-01-12T04:37:57.382Z,96876.37
2019-01-12T04:40:47.220Z,96877.17
2019-01-12T04:43:37.497Z,96884.56
2019-01-12T04:46:27.324Z,96879.80
2019-01-12T04:49:17.151Z,96877.73
2019-01-12T04:54:49.667Z,96879.30
2019-01-12T04:57:39.446Z,96874.52
2019-01-12T05:00:14.533Z,96870.38
2019-01-12T05:03:04.751Z,96875.80
2019-01-12T05:05:47.021Z,96876.50
2019-01-12T05:08:37.612Z,96872.48
2019-01-12T05:11:20.115Z,96870.00
2019-01-12T05:14:09.882Z,96874.27
2019-01-12T05:16:52.088Z,96874.50
2019-01-12T05:19:42.188Z,96877.44
2019-01-12T05:22:24.519Z,96876.03
2019-01-12T05:25:14.351Z,96871.16
2019-01-12T05:28:04.960Z,96871.73
2019-01-12T05:36:45.984Z,96850.27
2019-01-12T05:39:28.427Z,96876.97
2019-01-12T05:42:18.242Z,96875.86
2019-01-12T05:45:08.774Z,96869.28
2019-01-12T05:48:11.410Z,96873.78
2019-01-12T05:50:55.372Z,96878.31
2019-01-12T05:53:45.454Z,96885.12
2019-01-12T05:56:27.503Z,96883.71
2019-01-12T05:59:17.560Z,96875.66
2019-01-12T06:02:00.642Z,96875.86
2019-01-12T06:04:50.418Z,96870.69
2019-01-12T06:10:36.100Z,96883.91
2019-01-12T06:13:25.922Z,96891.67
2019-01-12T06:16:08.510Z,96890.61
2019-01-12T06:22:03.767Z,96887.39
2019-01-12T06:24:50.318Z,96876.85
2019-01-12T06:30:26.305Z,96872.70
2019-01-12T06:33:08.844Z,96866.54
2019-01-12T06:35:58.711Z,96868.73
2019-01-12T06:39:01.775Z,96861.17
2019-01-12T06:41:46.247Z,96878.29
2019-01-12T06:44:36.451Z,96865.26
2019-01-12T06:47:19.472Z,96883.72
2019-01-12T06:50:10.820Z,96865.52
2019-01-12T06:52:58.209Z,96885.38
2019-01-12T07:01:57.540Z,96870.50
2019-01-12T07:05:00.364Z,96871.17
2019-01-12T07:07:45.291Z,96866.22
2019-01-12T07:10:35.111Z,96871.64
2019-01-12T07:13:18.047Z,96877.20
2019-01-12T07:16:07.853Z,96873.44
2019-01-12T07:18:50.181Z,96885.67
2019-01-12T07:21:39.996Z,96883.78
2019-01-12T07:24:24.691Z,96865.99
2019-01-12T07:27:33.867Z,96878.80
2019-01-12T07:30:21.747Z,96878.80
2019-01-12T07:33:12.421Z,96884.27
2019-01-12T07:35:58.762Z,96894.58
2019-01-12T07:38:48.858Z,96892.15
2019-01-12T07:41:35.757Z,96900.20
2019-01-12T07:50:21.857Z,96893.11
2019-01-12T07:53:08.373Z,96889.14
2019-01-12T07:55:57.801Z,96890.01
2019-01-12T07:58:44.381Z,96884.80
2019-01-12T08:01:28.519Z,96873.84
2019-01-12T08:04:18.693Z,96893.36
2019-01-12T08:07:05.848Z,96895.98
2019-01-12T08:09:55.997Z,96875.37
2019-01-12T08:12:46.111Z,96893.52
2019-01-12T08:15:36.305Z,96895.66
2019-01-12T08:18:19.981Z,96899.74
2019-01-12T08:21:10.214Z,96907.06
2019-01-12T08:23:53.465Z,96906.70
2019-01-12T08:26:43.587Z,96913.51
2019-01-12T08:29:26.403Z,96917.86
2019-01-12T08:32:34.761Z,96919.81
2019-01-12T08:35:19.024Z,96916.56
2019-01-12T08:44:05.114Z,96914.59
2019-01-12T08:47:14.132Z,96913.80
2019-01-12T08:52:54.425Z,96912.75
2019-01-12T08:55:44.606Z,96911.27
2019-01-12T08:58:33.555Z,96892.52
2019-01-12T09:01:23.665Z,96909.02
2019-01-12T09:04:10.560Z,96914.48
2019-01-12T09:07:01.012Z,96914.11
2019-01-12T09:09:47.156Z,96899.52
2019-01-12T09:15:19.466Z,96909.17
2019-01-12T09:18:09.821Z,96907.00
2019-01-12T09:21:00.085Z,96886.41
2019-01-12T09:23:50.431Z,96904.57
2019-01-12T09:26:53.076Z,96910.05
2019-01-12T09:29:36.897Z,96908.52
2019-01-12T09:35:28.694Z,96883.14
2019-01-12T09:38:18.478Z,96891.31
2019-01-12T09:41:02.659Z,96884.64
2019-01-12T09:43:52.836Z,96894.99
2019-01-12T09:46:42.918Z,96891.29
2019-01-12T09:49:25.072Z,96880.99
2019-01-12T09:52:15.359Z,96874.39
2019-01-12T09:55:06.434Z,96892.61
2019-01-12T10:03:34.176Z,96889.45
2019-01-12T10:06:24.084Z,96875.47
2019-01-12T10:09:14.278Z,96890.95
2019-01-12T10:12:16.788Z,96890.33
2019-01-12T10:14:59.711Z,96895.84
2019-01-12T10:17:49.900Z,96873.27
2019-01-12T10:20:32.074Z,96887.20
2019-01-12T10:23:22.293Z,96895.08
2019-01-12T10:26:28.036Z,96895.77
2019-01-12T10:29:11.555Z,96895.12
2019-01-12T10:32:01.764Z,96896.34
2019-01-12T10:34:44.389Z,96886.86
2019-01-12T10:37:34.535Z,96883.28
2019-01-12T10:40:17.704Z,96878.38
2019-01-12T10:43:07.831Z,96876.23
2019-01-12T10:45:50.908Z,96866.00
2019-01-12T10:48:40.992Z,96856.03
2019-01-12T10:51:23.655Z,96869.49
2019-01-12T10:54:13.761Z,96870.76
2019-01-12T10:57:05.247Z,96873.05
2019-01-12T10:59:50.337Z,96869.29
2019-01-12T11:02:32.851Z,96872.23
2019-01-12T11:05:23.053Z,96866.05
2019-01-12T11:11:28.842Z,96862.31
2019-01-12T11:14:18.645Z,96861.39
2019-01-12T11:17:01.107Z,96857.45
2019-01-12T11:19:51.304Z,96847.66
2019-01-12T11:22:33.563Z,96845.81
2019-01-12T11:25:23.625Z,96845.19
2019-01-12T11:28:06.983Z,96826.38
2019-01-12T11:30:57.163Z,96846.30
2019-01-12T11:33:47.303Z,96847.81
2019-01-12T11:36:37.467Z,96841.56
2019-01-12T11:42:09.780Z,96807.05
2019-01-12T11:44:59.920Z,96798.44
2019-01-12T11:47:43.049Z,96788.66
2019-01-12T11:53:37.803Z,96785.18
2019-01-12T11:56:20.071Z,96775.57
2019-01-12T11:59:09.895Z,96763.42
2019-01-12T12:02:00.014Z,96766.66
2019-01-12T12:07:40.786Z,96754.00
2019-01-12T12:13:36.833Z,96714.59
2019-01-12T12:16:19.434Z,96717.03
2019-01-12T12:19:28.697Z,96709.08
2019-01-12T12:28:07.700Z,96725.48
2019-01-12T12:30:57.769Z,96729.04
2019-01-12T12:33:42.499Z,96721.99
2019-01-12T12:36:32.592Z,96704.42
2019-01-12T12:39:15.881Z,96696.90
2019-01-12T12:42:05.703Z,96674.39
2019-01-12T12:44:49.587Z,96682.65
2019-01-12T12:50:31.001Z,96685.19
2019-01-12T12:53:21.117Z,96715.25
2019-01-12T12:56:07.383Z,96706.66
2019-01-12T13:01:49.530Z,96702.45
2019-01-12T13:04:39.323Z,96706.17
2019-01-12T13:07:26.099Z,96697.95
2019-01-12T13:13:31.451Z,96662.47
2019-01-12T13:16:21.307Z,96634.31
2019-01-12T13:19:11.141Z,96624.16
2019-01-12T13:22:00.958Z,96610.71
2019-01-12T13:24:50.821Z,96603.48
2019-01-12T13:27:40.983Z,96610.58
2019-01-12T13:30:30.819Z,96590.34
2019-01-12T13:33:21.036Z,96593.18
2019-01-12T13:36:11.445Z,96601.52
2019-01-12T13:42:11.862Z,96602.51
2019-01-12T13:44:54.086Z,96605.50
2019-01-12T13:47:43.940Z,96575.92
2019-01-12T13:50:33.774Z,96596.38
2019-01-12T13:53:23.654Z,96583.33
2019-01-12T13:56:29.350Z,96615.82
2019-01-12T13:59:13.266Z,96622.02
2019-01-12T14:02:03.074Z,96597.62
2019-01-12T14:04:45.254Z,96615.84
2019-01-12T14:07:35.041Z,96604.93
2019-01-12T14:10:18.280Z,96616.24
2019-01-12T14:13:08.320Z,96609.45
2019-01-12T14:15:50.418Z,96609.27
2019-01-12T14:18:40.220Z,96628.98
2019-01-12T14:24:26.278Z,96646.02
2019-01-12T14:27:16.038Z,96646.02
2019-01-12T14:29:58.812Z,96647.92
2019-01-12T14:32:48.609Z,96640.48
2019-01-12T14:35:31.232Z,96652.53
2019-01-12T14:38:20.994Z,96650.48
2019-01-12T14:41:04.042Z,96647.37
2019-01-12T14:43:53.849Z,96643.67
2019-01-12T14:46:36.338Z,96638.47
2019-01-12T14:49:26.122Z,96637.73
2019-01-12T14:52:13.013Z,96637.86
2019-01-12T14:55:02.795Z,96631.44
2019-01-12T14:57:44.924Z,96620.83
2019-01-12T15:00:34.698Z,96618.88
2019-01-12T15:03:21.463Z,96601.70
2019-01-12T15:09:12.679Z,96622.12
2019-01-12T15:12:02.410Z,96612.05
2019-01-12T15:14:44.772Z,96591.00
2019-01-12T15:17:34.535Z,96600.69
2019-01-12T15:20:18.119Z,96588.13
2019-01-12T15:23:07.892Z,96561.81
2019-01-12T15:25:50.152Z,96577.45
2019-01-12T15:28:39.941Z,96574.21
2019-01-12T15:31:22.254Z,96566.91
2019-01-12T15:34:12.843Z,96577.55
2019-01-12T15:36:55.539Z,96547.63
2019-01-12T15:39:45.369Z,96563.39
2019-01-12T15:42:27.545Z,96543.59
2019-01-12T15:45:19.767Z,96566.39
2019-01-12T15:48:02.794Z,96566.83
2019-01-12T15:50:52.566Z,96560.70
2019-01-12T15:53:35.013Z,96554.20
2019-01-12T15:56:24.816Z,96524.28
2019-01-12T15:59:07.330Z,96545.22
2019-01-12T16:01:57.110Z,96541.18
2019-01-12T16:04:39.473Z,96544.66
2019-01-12T16:07:29.373Z,96535.44
2019-01-12T16:10:12.329Z,96518.30
2019-01-12T16:13:02.120Z,96530.27
2019-01-12T16:15:45.991Z,96530.33
2019-01-12T16:18:35.785Z,96525.50
2019-01-12T16:21:18.272Z,96521.80
2019-01-12T16:24:08.098Z,96498.79
2019-01-12T16:26:50.395Z,96503.16
2019-01-12T16:29:40.167Z,96514.88
2019-01-12T16:35:27.556Z,96510.53
2019-01-12T16:38:10.589Z,96524.67
2019-01-12T16:41:00.451Z,96528.83
2019-01-12T16:43:50.457Z,96537.59
2019-01-12T16:46:40.347Z,96534.49
2019-01-12T16:49:30.209Z,96524.34
2019-01-12T16:52:20.211Z,96497.83
2019-01-12T16:55:11.773Z,96508.75
2019-01-12T16:58:01.643Z,96503.47
2019-01-12T17:00:51.781Z,96480.01
2019-01-12T17:03:41.705Z,96463.52
2019-01-12T17:09:25.303Z,96462.38
2019-01-12T17:12:15.405Z,96467.81
2019-01-12T17:14:58.644Z,96465.02
2019-01-12T17:18:07.452Z,96463.92
2019-01-12T17:20:50.229Z,96460.09
2019-01-12T17:23:39.986Z,96465.77
2019-01-12T17:29:20.034Z,96446.59
2019-01-12T17:32:02.730Z,96438.32
2019-01-12T17:34:52.572Z,96434.08
2019-01-12T17:37:42.402Z,96399.27
2019-01-12T17:40:32.227Z,96401.69
2019-01-12T17:43:14.545Z,96405.82
2019-01-12T17:46:16.983Z,96416.59
2019-01-12T17:48:59.476Z,96425.52
2019-01-12T17:51:49.226Z,96434.14
2019-01-12T17:54:31.254Z,96422.62
2019-01-12T17:57:21.054Z,96401.57
2019-01-12T18:00:04.344Z,96413.75
2019-01-12T18:02:54.091Z,96421.27
2019-01-12T18:05:36.064Z,96429.90
2019-01-12T18:08:25.820Z,96432.03
2019-01-12T18:11:08.302Z,96420.94
2019-01-12T18:13:58.326Z,96420.83
2019-01-12T18:19:46.706Z,96394.72
2019-01-12T18:22:36.492Z,96386.30
2019-01-12T18:25:22.204Z,96375.88
2019-01-12T18:28:12.285Z,96376.67
2019-01-12T18:30:54.928Z,96366.81
2019-01-12T18:33:45.141Z,96366.81
2019-01-12T18:36:28.400Z,96359.30
2019-01-12T18:39:18.170Z,96332.39
2019-01-12T18:45:06.380Z,96345.08
2019-01-12T18:47:56.214Z,96339.80
2019-01-12T18:50:45.944Z,96316.45
2019-01-12T18:56:31.566Z,96296.27
2019-01-12T18:59:21.314Z,96303.95
2019-01-12T19:02:03.732Z,96304.95
2019-01-12T19:04:53.879Z,96314.92
2019-01-12T19:14:26.448Z,96304.69
2019-01-12T19:17:16.197Z,96323.89
2019-01-12T19:20:07.336Z,96321.07
2019-01-12T19:22:57.585Z,96329.14
2019-01-12T19:25:42.100Z,96325.55
2019-01-12T19:28:12.874Z,96312.63
2019-01-12T19:31:02.601Z,96340.70
2019-01-12T19:33:45.034Z,96328.72
2019-01-12T19:36:27.509Z,96320.41
2019-01-12T19:39:17.447Z,96334.52
2019-01-12T19:42:07.729Z,96338.66
2019-01-12T19:44:57.929Z,96332.56
2019-01-12T19:47:48.175Z,96324.91
2019-01-12T19:53:44.336Z,96331.53
2019-01-12T19:59:26.341Z,96312.33
2019-01-12T20:02:08.857Z,96304.47
2019-01-12T20:04:59.111Z,96305.77
2019-01-12T20:07:49.422Z,96312.70
2019-01-12T20:10:39.561Z,96329.73
2019-01-12T20:16:16.131Z,96337.44
2019-01-12T20:19:06.451Z,96304.89
2019-01-12T20:21:56.678Z,96327.03
2019-01-12T20:24:46.898Z,96305.04
2019-01-12T20:27:37.170Z,96322.31
2019-01-12T20:30:58.391Z,96315.28
2019-01-12T20:34:10.731Z,96310.00
2019-01-12T20:46:44.841Z,96314.35
2019-01-12T20:52:46.314Z,96290.92
2019-01-12T20:56:10.081Z,96299.03
2019-01-12T20:59:18.713Z,96303.06
2019-01-12T21:09:05.469Z,96279.09
2019-01-12T21:12:11.758Z,96292.01
2019-01-12T21:15:06.995Z,96293.21
2019-01-12T21:17:57.317Z,96298.03
2019-01-12T21:20:48.033Z,96302.86
2019-01-12T21:23:37.913Z,96281.25
2019-01-12T21:26:27.733Z,96298.22
2019-01-12T21:29:17.973Z,96290.27
2019-01-12T21:32:07.846Z,96290.81
2019-01-12T21:34:58.421Z,96282.11
2019-01-12T21:37:43.108Z,96284.44
2019-01-12T21:40:33.241Z,96273.45
2019-01-12T21:43:15.902Z,96270.12
2019-01-12T21:46:06.327Z,96262.06
2019-01-12T21:49:15.229Z,96263.41
2019-01-12T21:52:05.115Z,96246.84
2019-01-12T21:54:54.973Z,96245.95
2019-01-12T22:00:51.077Z,96232.17
2019-01-12T22:03:37.813Z,96227.55
2019-01-12T22:06:39.403Z,96220.53
2019-01-12T22:09:11.074Z,96209.23
2019-01-12T22:15:04.787Z,96196.81
2019-01-12T22:20:43.232Z,96177.56
2019-01-12T22:26:36.362Z,96170.75
2019-01-12T22:29:21.115Z,96198.02
2019-01-12T22:32:23.260Z,96188.85
2019-01-12T22:35:05.960Z,96186.06
2019-01-12T22:37:56.277Z,96156.89
2019-01-12T22:43:51.479Z,96180.14
2019-01-12T22:46:39.459Z,96172.54
2019-01-12T22:58:31.512Z,96146.92
2019-01-12T23:05:03.446Z,96141.09
2019-01-12T23:07:50.928Z,96118.69
2019-01-12T23:10:33.962Z,96110.31
2019-01-12T23:13:43.118Z,96130.36
2019-01-12T23:22:22.112Z,96132.94
2019-01-12T23:25:04.894Z,96107.59
2019-01-12T23:27:57.012Z,96117.72
2019-01-12T23:33:31.694Z,96107.98
2019-01-12T23:39:25.429Z,96123.20
2019-01-12T23:42:15.243Z,96128.25
2019-01-12T23:48:49.635Z,96118.61
2019-01-12T23:51:34.340Z,96121.09
2019-01-12T23:57:19.226Z,96105.26
